Time;durP1;ratioP1;P1;durP2;ratioP2;P2;SDS_P1;SDS_P2;PMS_P1;PMS_P2;Temp;Humidity;BMP_temperature;BMP_pressure;BME280_temperature;BME280_humidity;BME280_pressure;Samples;Min_cycle;Max_cycle;Signal;HPM_P1;HPM_P2
2023/11/14 00:02:29;;;;;;;24.25;22.75;;;;;;;0.28;100.00;101194.69;5012151;28;20458;-75
2023/11/14 00:04:56;;;;;;;28.85;26.70;;;;;;;0.39;100.00;101203.28;5009085;28;20092;-78
2023/11/14 00:07:24;;;;;;;26.70;25.00;;;;;;;0.35;100.00;101187.97;5011054;28;20050;-78
2023/11/14 00:09:51;;;;;;;26.90;25.00;;;;;;;0.22;100.00;101189.00;5000961;28;20046;-78
2023/11/14 00:12:19;;;;;;;26.48;24.77;;;;;;;0.07;100.00;101186.81;5007179;28;20137;-78
2023/11/14 00:14:46;;;;;;;27.13;25.33;;;;;;;-0.07;100.00;101186.16;5009318;28;20046;-78
2023/11/14 00:17:13;;;;;;;23.80;22.30;;;;;;;0.00;100.00;101176.06;5009635;28;20480;-78
2023/11/14 00:19:43;;;;;;;24.30;22.80;;;;;;;0.30;100.00;101185.72;5010502;28;20052;-76
2023/11/14 00:22:10;;;;;;;25.05;23.50;;;;;;;0.49;100.00;101181.59;5009258;28;20049;-75
2023/11/14 00:24:37;;;;;;;26.17;24.58;;;;;;;0.53;100.00;101180.38;5013116;28;20060;-75
2023/11/14 00:27:05;;;;;;;25.23;23.63;;;;;;;0.38;100.00;101185.09;5013289;28;20137;-75
2023/11/14 00:29:32;;;;;;;24.90;23.30;;;;;;;0.48;100.00;101188.59;5009463;28;20054;-76
2023/11/14 00:31:59;;;;;;;24.00;22.25;;;;;;;0.46;100.00;101185.28;5009900;28;20058;-76
2023/11/14 00:34:26;;;;;;;24.30;22.90;;;;;;;0.55;100.00;101183.69;5009919;28;20050;-75
2023/11/14 00:36:57;;;;;;;26.20;24.42;;;;;;;0.36;100.00;101176.56;5010457;28;20072;-75
2023/11/14 00:39:24;;;;;;;24.15;22.60;;;;;;;0.27;100.00;101170.31;5011139;28;20442;-75
2023/11/14 00:41:53;;;;;;;24.08;22.58;;;;;;;-0.17;100.00;101187.03;5008709;28;20060;-75
2023/11/14 00:44:20;;;;;;;21.92;20.55;;;;;;;-0.02;100.00;101175.34;5011185;28;20077;-76
2023/11/14 00:46:47;;;;;;;22.92;21.52;;;;;;;0.21;100.00;101166.44;5010152;28;20112;-75
2023/11/14 00:49:14;;;;;;;22.40;21.00;;;;;;;0.16;100.00;101158.16;5007521;28;20431;-75
2023/11/14 00:51:41;;;;;;;22.15;20.85;;;;;;;0.34;100.00;101165.41;5010391;28;20037;-76
2023/11/14 00:54:09;;;;;;;23.67;22.17;;;;;;;0.21;100.00;101169.06;5010234;28;20443;-75
2023/11/14 00:56:36;;;;;;;22.40;21.10;;;;;;;0.34;100.00;101160.19;5010286;28;20052;-75
2023/11/14 00:59:05;;;;;;;27.95;24.85;;;;;;;0.41;100.00;101163.94;5009434;28;20064;-76
2023/11/14 01:01:31;;;;;;;24.67;23.27;;;;;;;0.47;100.00;101158.19;5009676;28;20628;-76
2023/11/14 01:03:59;;;;;;;24.15;22.75;;;;;;;0.37;100.00;101152.09;5010716;28;20042;-75
2023/11/14 01:06:26;;;;;;;23.45;22.05;;;;;;;0.31;100.00;101155.22;5011341;28;20520;-75
2023/11/14 01:08:53;;;;;;;24.17;22.67;;;;;;;0.46;100.00;101159.16;5005900;28;20143;-75
2023/11/14 01:11:23;;;;;;;27.83;26.00;;;;;;;0.26;100.00;101158.22;5011611;28;20073;-75
2023/11/14 01:13:50;;;;;;;23.40;22.00;;;;;;;0.33;100.00;101155.91;5010182;28;20053;-76
2023/11/14 01:16:17;;;;;;;30.75;28.95;;;;;;;0.57;100.00;101169.50;5011869;28;20057;-75
2023/11/14 01:18:44;;;;;;;24.27;22.98;;;;;;;0.47;100.00;101170.44;5010149;28;20133;-75
2023/11/14 01:21:15;;;;;;;26.27;24.65;;;;;;;0.64;100.00;101170.66;5010870;28;20054;-75
2023/11/14 01:23:42;;;;;;;25.67;23.67;;;;;;;0.46;100.00;101167.00;5012466;28;20519;-76
2023/11/14 01:26:09;;;;;;;24.05;22.65;;;;;;;0.52;100.00;101156.03;5010910;28;20048;-75
2023/11/14 01:28:38;;;;;;;26.65;25.05;;;;;;;0.52;100.00;101135.13;5009915;28;20053;-75
2023/11/14 01:31:05;;;;;;;23.75;22.25;;;;;;;0.35;100.00;101141.75;5010888;28;20068;-75
2023/11/14 01:33:31;;;;;;;24.80;23.20;;;;;;;0.35;100.00;101146.97;5008089;28;20073;-75
2023/11/14 01:35:58;;;;;;;31.98;29.98;;;;;;;0.37;100.00;101146.88;5009767;28;20439;-75
2023/11/14 01:38:25;;;;;;;26.83;24.50;;;;;;;0.59;100.00;101132.81;5011626;28;20054;-75
2023/11/14 01:40:54;;;;;;;25.08;23.38;;;;;;;0.45;100.00;101150.50;5012444;28;20056;-76
2023/11/14 01:43:21;;;;;;;22.90;21.55;;;;;;;0.49;100.00;101152.84;5013139;28;20050;-75
2023/11/14 01:45:49;;;;;;;25.30;23.75;;;;;;;0.73;100.00;101144.69;5015964;28;20049;-75
2023/11/14 01:48:16;;;;;;;25.77;24.10;;;;;;;0.65;100.00;101140.13;5008448;28;20439;-75
2023/11/14 01:50:43;;;;;;;23.20;21.75;;;;;;;0.73;100.00;101136.84;5012256;28;20058;-76
2023/11/14 01:53:11;;;;;;;26.52;24.83;;;;;;;0.71;100.00;101130.94;5012993;28;20069;-75
2023/11/14 01:55:38;;;;;;;24.27;22.88;;;;;;;1.16;100.00;101138.38;5012950;28;20175;-76
2023/11/14 01:58:06;;;;;;;24.80;23.25;;;;;;;1.49;100.00;101143.25;5013825;28;20125;-76
2023/11/14 02:00:34;;;;;;;23.30;21.70;;;;;;;1.35;100.00;101144.44;5015043;28;20057;-75
2023/11/14 02:03:02;;;;;;;23.17;21.58;;;;;;;1.14;100.00;101130.63;5013380;28;20049;-75
2023/11/14 02:05:29;;;;;;;24.30;22.70;;;;;;;0.99;100.00;101130.19;5013746;28;20137;-75
2023/11/14 02:07:56;;;;;;;24.63;23.02;;;;;;;0.77;100.00;101125.16;5015121;28;20430;-75
2023/11/14 02:10:25;;;;;;;25.77;24.17;;;;;;;0.75;100.00;101124.47;5008089;28;20045;-76
2023/11/14 02:12:52;;;;;;;25.27;23.67;;;;;;;0.73;100.00;101123.75;5012642;28;20128;-76
2023/11/14 02:15:21;;;;;;;27.15;25.35;;;;;;;0.78;100.00;101124.19;5013049;28;20045;-76
2023/11/14 02:17:48;;;;;;;25.38;23.70;;;;;;;0.70;100.00;101114.41;5011167;28;20057;-75
2023/11/14 02:20:16;;;;;;;25.92;24.33;;;;;;;0.94;100.00;101121.09;5013557;28;20055;-75
2023/11/14 02:22:43;;;;;;;29.05;27.15;;;;;;;0.85;100.00;101118.31;5012008;28;20057;-75
2023/11/14 02:25:12;;;;;;;27.27;25.35;;;;;;;0.84;100.00;101116.66;5011286;28;20050;-75
2023/11/14 02:27:39;;;;;;;23.80;22.08;;;;;;;0.88;100.00;101115.44;5012727;28;20691;-75
2023/11/14 02:30:07;;;;;;;24.45;22.95;;;;;;;1.06;100.00;101112.16;5017597;28;20046;-75
2023/11/14 02:32:34;;;;;;;25.80;24.17;;;;;;;0.79;100.00;101112.81;5013058;28;20144;-75
2023/11/14 02:35:01;;;;;;;27.65;25.85;;;;;;;0.59;100.00;101101.44;5013392;28;20100;-76
2023/11/14 02:37:28;;;;;;;27.20;25.35;;;;;;;0.65;100.00;101108.75;5013819;28;20053;-75
2023/11/14 02:39:57;;;;;;;27.50;25.50;;;;;;;0.49;100.00;101103.19;5014823;28;20053;-75
2023/11/14 02:42:27;;;;;;;26.98;25.30;;;;;;;0.47;100.00;101094.63;5013933;28;20045;-75
2023/11/14 02:44:53;;;;;;;24.90;23.30;;;;;;;0.30;100.00;101083.81;5016374;28;20498;-78
2023/11/14 02:47:21;;;;;;;24.35;22.85;;;;;;;0.48;100.00;101091.06;5020017;28;20042;-78
2023/11/14 02:49:57;;;;;;;24.00;22.20;;;;;;;0.52;100.00;101080.22;5015093;28;20069;-79
2023/11/14 02:52:24;;;;;;;23.45;21.85;;;;;;;0.46;100.00;101088.59;5014992;28;20046;-79
2023/11/14 02:54:51;;;;;;;22.15;20.67;;;;;;;0.61;100.00;101081.22;5012690;28;20065;-79
2023/11/14 02:57:18;;;;;;;23.67;21.92;;;;;;;0.62;100.00;101081.06;5012939;28;20574;-78
2023/11/14 02:59:48;;;;;;;23.83;22.42;;;;;;;0.69;100.00;101081.38;5017417;28;20511;-78
2023/11/14 03:02:15;;;;;;;28.05;26.35;;;;;;;0.76;100.00;101082.50;5013713;28;20107;-78
2023/11/14 03:04:42;;;;;;;28.00;26.40;;;;;;;0.79;100.00;101078.81;5015714;28;20458;-79
2023/11/14 03:07:09;;;;;;;25.00;23.42;;;;;;;0.79;100.00;101084.84;5015723;28;20482;-79
2023/11/14 03:09:36;;;;;;;27.60;25.90;;;;;;;0.81;100.00;101084.72;5005482;28;20054;-79
2023/11/14 03:12:03;;;;;;;27.42;25.83;;;;;;;1.10;100.00;101096.06;5007122;28;20439;-76
2023/11/14 03:14:30;;;;;;;31.50;29.70;;;;;;;1.67;100.00;101092.81;5012641;28;20077;-76
2023/11/14 03:16:58;;;;;;;29.98;28.10;;;;;;;1.96;100.00;101093.59;5009411;28;20121;-75
2023/11/14 03:19:25;;;;;;;32.05;30.25;;;;;;;1.71;100.00;101100.25;5009413;28;20052;-75
2023/11/14 03:21:52;;;;;;;27.00;25.20;;;;;;;1.62;100.00;101100.25;5011230;28;20053;-75
2023/11/14 03:24:19;;;;;;;26.63;25.02;;;;;;;1.81;100.00;101097.63;5011174;28;20041;-76
2023/11/14 03:26:46;;;;;;;25.67;24.17;;;;;;;2.05;100.00;101090.13;5009805;28;20054;-75
2023/11/14 03:29:13;;;;;;;30.48;28.60;;;;;;;1.82;100.00;101099.28;5008547;28;20129;-75
2023/11/14 03:31:40;;;;;;;25.52;24.10;;;;;;;1.63;100.00;101100.09;5012905;28;20054;-75
2023/11/14 03:34:08;;;;;;;23.52;22.02;;;;;;;1.25;100.00;101099.13;5009401;28;20096;-75
2023/11/14 03:36:35;;;;;;;28.25;26.45;;;;;;;1.40;100.00;101101.34;5011147;28;20054;-76
2023/11/14 03:39:02;;;;;;;24.98;23.08;;;;;;;1.57;100.00;101101.50;5013386;28;20062;-75
2023/11/14 03:41:29;;;;;;;23.75;22.15;;;;;;;1.76;100.00;101084.94;5009751;28;20042;-76
2023/11/14 03:43:56;;;;;;;22.80;21.30;;;;;;;1.86;100.00;101100.66;5011968;28;20561;-75
2023/11/14 03:46:23;;;;;;;25.75;23.88;;;;;;;1.99;100.00;101087.25;5009179;28;20057;-76
2023/11/14 03:48:50;;;;;;;23.33;21.73;;;;;;;1.80;100.00;101085.50;5012137;28;20049;-76
2023/11/14 03:51:18;;;;;;;25.70;23.85;;;;;;;1.86;100.00;101099.81;5012296;28;20053;-75
2023/11/14 03:53:45;;;;;;;28.85;26.92;;;;;;;2.00;100.00;101074.03;5012885;28;20065;-75
2023/11/14 03:56:12;;;;;;;26.27;24.77;;;;;;;1.97;100.00;101082.16;5009422;28;20049;-76
2023/11/14 03:58:40;;;;;;;23.00;21.60;;;;;;;2.26;100.00;101071.59;5013374;28;20071;-75
2023/11/14 04:01:07;;;;;;;24.58;23.17;;;;;;;2.03;100.00;101078.97;5010737;28;20060;-75
2023/11/14 04:03:34;;;;;;;24.92;23.42;;;;;;;2.17;100.00;101079.50;5010178;28;20435;-75
2023/11/14 04:06:01;;;;;;;28.02;26.13;;;;;;;2.57;100.00;101063.47;5010201;28;20041;-76
2023/11/14 04:08:29;;;;;;;28.40;26.25;;;;;;;2.41;100.00;101073.75;5011828;28;20037;-76
2023/11/14 04:10:56;;;;;;;28.13;26.40;;;;;;;2.53;100.00;101075.22;5001911;28;20041;-76
2023/11/14 04:13:23;;;;;;;28.02;26.23;;;;;;;2.55;100.00;101068.03;5013422;28;20045;-75
2023/11/14 04:15:50;;;;;;;27.98;26.10;;;;;;;2.52;100.00;101082.28;5012999;28;20049;-75
2023/11/14 04:18:18;;;;;;;30.20;28.20;;;;;;;2.53;100.00;101078.66;5011362;28;20081;-75
2023/11/14 04:20:45;;;;;;;29.63;27.63;;;;;;;2.48;100.00;101069.56;5012738;28;20045;-75
2023/11/14 04:23:13;;;;;;;25.42;23.73;;;;;;;2.51;100.00;101064.91;5012407;28;20054;-75
2023/11/14 04:25:41;;;;;;;27.67;25.95;;;;;;;2.50;100.00;101065.03;5011335;28;20055;-76
2023/11/14 04:28:08;;;;;;;25.67;23.98;;;;;;;2.37;100.00;101057.50;5010694;28;20045;-75
2023/11/14 04:30:35;;;;;;;27.17;25.38;;;;;;;2.39;100.00;101049.47;5009445;28;20050;-76
2023/11/14 04:33:02;;;;;;;23.90;22.20;;;;;;;2.45;100.00;101043.66;5008793;28;20054;-79
2023/11/14 04:35:29;;;;;;;28.88;27.08;;;;;;;2.51;100.00;101053.56;5009945;28;20058;-78
2023/11/14 04:37:56;;;;;;;27.58;25.77;;;;;;;2.49;100.00;101051.09;5009362;28;20037;-75
2023/11/14 04:40:23;;;;;;;35.42;33.28;;;;;;;2.37;100.00;101059.28;5010029;28;20534;-75
2023/11/14 04:42:52;;;;;;;34.38;32.47;;;;;;;2.62;100.00;101044.69;5011382;28;20053;-77
2023/11/14 04:45:19;;;;;;;35.25;33.35;;;;;;;2.26;100.00;101052.41;5009501;28;20049;-77
2023/11/14 04:47:47;;;;;;;33.42;31.73;;;;;;;3.23;100.00;101062.38;5011597;28;20128;-79
2023/11/14 04:50:14;;;;;;;33.40;31.60;;;;;;;3.17;100.00;101066.44;5008199;28;20703;-78
2023/11/14 04:52:42;;;;;;;41.22;38.92;;;;;;;3.00;100.00;101069.06;5008640;28;20061;-78
2023/11/14 04:55:10;;;;;;;34.17;32.28;;;;;;;2.78;100.00;101072.88;5010537;28;20046;-78
2023/11/14 04:57:37;;;;;;;26.52;24.63;;;;;;;3.12;100.00;101075.75;5009506;28;20062;-78
2023/11/14 05:00:08;;;;;;;22.33;20.40;;;;;;;3.41;100.00;101072.88;5009936;28;20060;-79
2023/11/14 05:02:36;;;;;;;24.52;21.77;;;;;;;3.26;100.00;101072.59;5010744;28;20049;-79
2023/11/14 05:05:02;;;;;;;25.95;23.38;;;;;;;3.11;100.00;101079.31;5011289;28;20049;-78
2023/11/14 05:07:30;;;;;;;29.67;27.17;;;;;;;2.91;100.00;101076.84;5007690;28;20038;-78
2023/11/14 05:09:57;;;;;;;20.75;18.55;;;;;;;2.74;100.00;101102.03;5005810;28;20068;-78
2023/11/14 05:12:24;;;;;;;19.27;16.10;;;;;;;2.69;100.00;101092.94;5008391;28;20041;-78
2023/11/14 05:14:51;;;;;;;19.27;17.48;;;;;;;2.68;100.00;101104.41;5008463;28;20058;-78
2023/11/14 05:17:19;;;;;;;21.30;20.10;;;;;;;2.92;100.00;101117.84;5010176;28;20050;-78
2023/11/14 05:19:46;;;;;;;22.23;20.92;;;;;;;2.71;100.00;101123.31;5014943;28;20523;-78
2023/11/14 05:22:13;;;;;;;21.20;20.10;;;;;;;2.78;100.00;101120.94;5011412;28;20046;-78
2023/11/14 05:24:40;;;;;;;25.58;23.63;;;;;;;2.58;100.00;101120.22;5014676;28;20482;-78
2023/11/14 05:27:09;;;;;;;21.88;20.67;;;;;;;2.40;100.00;101125.38;5014690;28;20100;-78
2023/11/14 05:29:36;;;;;;;22.23;20.90;;;;;;;2.42;100.00;101115.56;5014602;28;20454;-78
2023/11/14 05:32:02;;;;;;;21.15;19.90;;;;;;;2.38;100.00;101118.59;5012972;28;20506;-78
2023/11/14 05:34:31;;;;;;;23.08;21.60;;;;;;;2.39;100.00;101118.47;5010920;28;20064;-79
2023/11/14 05:36:58;;;;;;;22.67;21.27;;;;;;;2.40;100.00;101124.53;5013442;28;20049;-78
2023/11/14 05:39:25;;;;;;;22.70;21.30;;;;;;;2.74;100.00;101125.66;5012432;28;20042;-78
2023/11/14 05:41:52;;;;;;;21.25;19.95;;;;;;;2.87;100.00;101106.13;5012428;28;20045;-78
2023/11/14 05:44:19;;;;;;;22.75;21.17;;;;;;;2.94;100.00;101118.53;5012538;28;20054;-78
2023/11/14 05:46:46;;;;;;;23.10;21.58;;;;;;;3.43;100.00;101113.78;5012828;28;20053;-78
2023/11/14 05:49:12;;;;;;;24.40;22.70;;;;;;;3.82;100.00;101120.53;5015944;28;20052;-78
2023/11/14 05:51:41;;;;;;;25.20;23.60;;;;;;;4.22;100.00;101111.31;5014746;28;20492;-78
2023/11/14 05:54:08;;;;;;;25.40;23.80;;;;;;;4.72;100.00;101100.03;5012974;28;20077;-78
2023/11/14 05:56:35;;;;;;;27.40;25.60;;;;;;;5.12;100.00;101095.91;5013031;28;20045;-79
2023/11/14 05:59:03;;;;;;;28.73;26.70;;;;;;;5.42;100.00;101090.03;5013313;28;20046;-78
2023/11/14 06:01:30;;;;;;;26.77;24.80;;;;;;;5.92;100.00;101088.22;5010895;28;20053;-79
2023/11/14 06:03:57;;;;;;;27.70;25.90;;;;;;;5.95;100.00;101085.28;5009129;28;20049;-79
2023/11/14 06:06:27;;;;;;;30.42;28.30;;;;;;;6.66;100.00;101088.94;5012482;28;20132;-78
2023/11/14 06:08:55;;;;;;;28.67;26.60;;;;;;;6.97;100.00;101085.50;5010948;28;20050;-79
2023/11/14 06:11:22;;;;;;;29.17;27.25;;;;;;;6.19;100.00;101098.44;5003570;28;20056;-78
2023/11/14 06:13:49;;;;;;;30.65;28.60;;;;;;;6.79;100.00;101101.56;5007104;28;20442;-78
2023/11/14 06:16:17;;;;;;;27.27;25.38;;;;;;;7.05;100.00;101101.25;5009880;28;20505;-79
2023/11/14 06:18:44;;;;;;;28.08;26.08;;;;;;;6.85;100.00;101104.34;5013728;28;20471;-78
2023/11/14 06:21:11;;;;;;;30.88;28.48;;;;;;;6.92;100.00;101106.28;5009569;28;20077;-78
2023/11/14 06:23:38;;;;;;;34.05;31.33;;;;;;;6.85;100.00;101091.16;5009015;28;20050;-78
2023/11/14 06:26:07;;;;;;;30.15;27.50;;;;;;;6.92;100.00;101087.81;5009952;28;20044;-79
2023/11/14 06:28:34;;;;;;;30.27;28.00;;;;;;;6.98;100.00;101092.41;5007566;28;20076;-79
2023/11/14 06:31:01;;;;;;;29.48;27.00;;;;;;;6.83;100.00;101093.13;5010640;28;20052;-78
2023/11/14 06:33:32;;;;;;;33.80;30.25;;;;;;;6.93;100.00;101092.94;5009013;28;20413;-79
2023/11/14 06:35:59;;;;;;;31.95;29.55;;;;;;;6.71;100.00;101094.50;5010462;28;20061;-78
2023/11/14 06:38:26;;;;;;;34.65;31.33;;;;;;;6.87;100.00;101090.97;5012586;28;20050;-79
2023/11/14 06:40:52;;;;;;;34.13;28.23;;;;;;;7.15;100.00;101093.16;5011075;28;20053;-79
2023/11/14 06:43:21;;;;;;;25.55;23.02;;;;;;;6.88;100.00;101071.50;5011064;28;20049;-79
2023/11/14 06:45:48;;;;;;;25.40;23.50;;;;;;;7.20;100.00;101067.00;5008892;28;20069;-79
2023/11/14 06:48:15;;;;;;;23.95;22.15;;;;;;;7.24;100.00;101074.44;5008589;28;20057;-78
2023/11/14 06:50:42;;;;;;;24.90;23.10;;;;;;;6.95;100.00;101067.16;5011244;28;20088;-79
2023/11/14 06:53:09;;;;;;;22.52;20.92;;;;;;;7.40;100.00;101068.19;5010959;28;20050;-78
2023/11/14 06:55:35;;;;;;;21.33;19.73;;;;;;;7.90;100.00;101077.38;5011170;28;20430;-79
2023/11/14 06:58:02;;;;;;;22.90;21.30;;;;;;;7.81;100.00;101073.19;5010811;28;20050;-79
2023/11/14 07:00:31;;;;;;;23.30;21.70;;;;;;;7.67;100.00;101072.13;5011591;28;20064;-79
2023/11/14 07:02:58;;;;;;;21.60;20.10;;;;;;;8.20;100.00;101065.03;5012339;28;20073;-79
2023/11/14 07:05:25;;;;;;;23.20;21.50;;;;;;;8.52;100.00;101057.72;5012278;28;20048;-76
2023/11/14 07:07:54;;;;;;;22.90;20.88;;;;;;;8.71;100.00;101045.75;5012103;28;20139;-81
2023/11/14 07:10:21;;;;;;;20.85;19.45;;;;;;;9.43;100.00;101070.56;5009958;28;20492;-82
2023/11/14 07:12:48;;;;;;;20.95;19.55;;;;;;;9.77;100.00;101060.06;5003119;28;20046;-81
2023/11/14 07:15:17;;;;;;;24.92;23.33;;;;;;;10.15;100.00;101048.28;5009524;28;20050;-81
2023/11/14 07:17:46;;;;;;;25.33;23.63;;;;;;;10.50;100.00;101055.25;5012031;28;20521;-82
2023/11/14 07:20:13;;;;;;;28.08;26.17;;;;;;;10.54;100.00;101056.50;5010009;28;20538;-81
2023/11/14 07:22:40;;;;;;;26.50;24.50;;;;;;;10.95;100.00;101065.44;5011210;28;20585;-82
2023/11/14 07:25:09;;;;;;;23.90;22.10;;;;;;;12.05;100.00;101061.47;5010230;28;20073;-82
2023/11/14 07:27:38;;;;;;;25.35;23.35;;;;;;;12.33;100.00;101068.38;5010206;28;20067;-82
2023/11/14 07:30:06;;;;;;;24.65;22.88;;;;;;;11.89;100.00;101072.53;5007413;28;20122;-82
2023/11/14 07:32:33;;;;;;;24.13;22.33;;;;;;;11.87;100.00;101066.63;5012109;28;20467;-81
2023/11/14 07:35:02;;;;;;;25.40;23.52;;;;;;;11.35;100.00;101050.41;5007101;28;20069;-82
2023/11/14 07:37:30;;;;;;;23.30;21.60;;;;;;;11.41;100.00;101056.75;5006872;28;20072;-82
2023/11/14 07:39:57;;;;;;;23.00;21.30;;;;;;;11.91;100.00;101044.69;5008347;28;20054;-82
2023/11/14 07:42:27;;;;;;;25.05;23.05;;;;;;;12.49;100.00;101057.25;5010336;28;20844;-81
2023/11/14 07:44:54;;;;;;;24.10;22.67;;;;;;;13.24;100.00;101060.19;5009254;28;20124;-82
2023/11/14 07:47:21;;;;;;;23.83;22.33;;;;;;;13.00;100.00;101060.94;4986817;28;20045;-82
2023/11/14 07:49:47;;;;;;;24.75;23.05;;;;;;;13.01;100.00;101049.25;5013215;28;20041;-82
2023/11/14 07:52:16;;;;;;;27.30;25.40;;;;;;;12.71;100.00;101047.16;5012464;28;20436;-82
2023/11/14 07:54:44;;;;;;;36.40;33.33;;;;;;;13.41;100.00;101044.53;5005878;28;20053;-82
2023/11/14 07:57:12;;;;;;;227.27;121.15;;;;;;;13.97;100.00;101043.63;5013475;28;20493;-82
2023/11/14 07:59:39;;;;;;;43.90;34.00;;;;;;;14.63;100.00;101022.59;5010457;28;20523;-82
2023/11/14 08:02:06;;;;;;;345.80;201.65;;;;;;;14.32;100.00;101021.69;5009464;28;20503;-82
2023/11/14 08:04:33;;;;;;;78.55;51.63;;;;;;;14.42;100.00;101013.97;5007969;28;20068;-82
2023/11/14 08:07:00;;;;;;;30.90;27.92;;;;;;;14.89;100.00;101008.88;5010064;28;20056;-78
2023/11/14 08:09:29;;;;;;;30.42;28.02;;;;;;;14.81;100.00;101000.34;5008457;28;20068;-81
2023/11/14 08:11:56;;;;;;;26.85;24.83;;;;;;;14.93;100.00;100995.03;5000857;28;20081;-82
2023/11/14 08:14:22;;;;;;;60.05;33.17;;;;;;;15.39;100.00;101006.88;5011145;28;20046;-82
2023/11/14 08:16:49;;;;;;;25.00;23.40;;;;;;;15.49;100.00;100994.59;5007701;28;20077;-82
2023/11/14 08:19:16;;;;;;;27.50;25.85;;;;;;;16.32;100.00;100994.53;5007254;28;20056;-83
2023/11/14 08:21:44;;;;;;;31.75;29.17;;;;;;;16.69;100.00;100992.31;5008349;28;20045;-82
2023/11/14 08:24:11;;;;;;;30.60;28.13;;;;;;;18.06;100.00;100992.91;5007793;28;20494;-80
2023/11/14 08:26:40;;;;;;;24.13;22.00;;;;;;;18.22;100.00;100988.59;5009237;28;20046;-80
2023/11/14 08:29:07;;;;;;;23.30;21.70;;;;;;;17.88;100.00;100988.66;5008051;28;20151;-80
2023/11/14 08:31:34;;;;;;;24.50;23.00;;;;;;;18.69;100.00;100988.81;5008431;28;20061;-80
2023/11/14 08:34:01;;;;;;;27.45;24.95;;;;;;;19.94;100.00;100976.94;5005502;28;20100;-80
2023/11/14 08:36:28;;;;;;;27.70;25.80;;;;;;;19.86;100.00;100975.56;5008363;28;20167;-75
2023/11/14 08:38:55;;;;;;;34.63;29.17;;;;;;;20.30;100.00;100975.22;5010380;28;20049;-75
2023/11/14 08:41:22;;;;;;;25.67;23.90;;;;;;;19.98;100.00;100979.94;5008998;28;20072;-74
2023/11/14 08:43:50;;;;;;;24.75;23.05;;;;;;;20.72;100.00;100968.84;5006199;28;20045;-74
2023/11/14 08:46:18;;;;;;;28.48;25.77;;;;;;;19.53;100.00;100984.75;5009694;28;20056;-74
2023/11/14 08:48:45;;;;;;;24.45;22.85;;;;;;;17.46;100.00;100985.59;5009460;28;20128;-75
2023/11/14 08:51:15;;;;;;;26.40;24.65;;;;;;;18.48;100.00;100982.41;5010521;28;20499;-74
2023/11/14 08:53:43;;;;;;;26.77;24.80;;;;;;;17.38;100.00;100976.09;5009077;28;20046;-74
2023/11/14 08:56:10;;;;;;;24.20;22.52;;;;;;;18.13;100.00;100979.31;5009572;28;20131;-74
2023/11/14 08:58:37;;;;;;;25.58;23.80;;;;;;;17.25;100.00;100985.28;5008235;28;20053;-74
2023/11/14 09:01:06;;;;;;;21.90;20.40;;;;;;;18.74;100.00;100983.53;5008667;28;20045;-74
2023/11/14 09:03:33;;;;;;;22.50;20.80;;;;;;;17.51;100.00;100993.72;5006310;28;20447;-74
2023/11/14 09:06:00;;;;;;;23.00;21.40;;;;;;;17.86;100.00;100985.41;5008105;28;20507;-77
2023/11/14 09:08:27;;;;;;;25.30;23.60;;;;;;;19.44;100.00;100983.59;5007807;28;20522;-77
2023/11/14 09:10:56;;;;;;;23.75;22.15;;;;;;;17.52;100.00;100982.75;5006553;28;20049;-77
2023/11/14 09:13:24;;;;;;;23.65;22.05;;;;;;;18.10;100.00;100986.00;5002210;28;20045;-77
2023/11/14 09:15:51;;;;;;;22.02;20.52;;;;;;;18.35;100.00;100982.81;5008343;28;20050;-76
2023/11/14 09:18:19;;;;;;;27.05;24.98;;;;;;;18.73;100.00;100976.53;5009881;28;20510;-77
2023/11/14 09:20:46;;;;;;;23.67;22.08;;;;;;;19.85;100.00;100970.44;5006837;28;20081;-77
2023/11/14 09:23:13;;;;;;;24.23;22.60;;;;;;;18.57;93.36;100966.66;5008731;28;20567;-76
2023/11/14 09:25:40;;;;;;;23.95;22.35;;;;;;;21.42;77.15;100963.81;5009286;28;20059;-76
2023/11/14 09:28:07;;;;;;;31.15;28.35;;;;;;;19.75;89.09;100956.88;5007154;28;20385;-76
2023/11/14 09:30:34;;;;;;;23.75;22.05;;;;;;;21.11;75.11;100957.56;5008121;28;20046;-77
2023/11/14 09:33:02;;;;;;;24.33;22.63;;;;;;;19.68;82.51;100952.53;5008281;28;20042;-77
2023/11/14 09:35:30;;;;;;;24.20;22.50;;;;;;;19.17;88.42;100941.38;5007797;28;20052;-76
2023/11/14 09:37:58;;;;;;;31.83;26.92;;;;;;;19.99;93.72;100935.72;5007081;28;20130;-76
2023/11/14 09:40:28;;;;;;;24.60;23.00;;;;;;;20.06;88.29;100941.66;5009195;28;20041;-77
2023/11/14 09:42:55;;;;;;;24.52;22.83;;;;;;;19.63;95.26;100949.78;5009640;28;20059;-76
2023/11/14 09:45:24;;;;;;;23.75;22.05;;;;;;;19.89;100.00;100937.28;5006315;28;20054;-77
2023/11/14 09:47:51;;;;;;;25.30;23.48;;;;;;;20.55;81.27;100934.03;5009720;28;20949;-77
2023/11/14 09:50:19;;;;;;;32.17;29.08;;;;;;;19.63;84.84;100940.88;5007159;28;20118;-77
2023/11/14 09:52:48;;;;;;;24.33;22.55;;;;;;;20.09;85.02;100925.78;5008410;28;20050;-77
2023/11/14 09:55:15;;;;;;;27.42;25.10;;;;;;;20.09;88.85;100927.66;5008235;28;20054;-77
2023/11/14 09:57:46;;;;;;;25.75;23.50;;;;;;;19.47;84.45;100918.44;5007987;28;20046;-77
2023/11/14 10:00:15;;;;;;;28.50;26.15;;;;;;;19.42;92.07;100896.84;5010635;28;20053;-77
2023/11/14 10:02:42;;;;;;;25.10;23.30;;;;;;;23.38;62.34;100883.91;5009560;28;20053;-77
2023/11/14 10:05:09;;;;;;;26.02;24.15;;;;;;;23.27;59.26;100885.16;5012871;28;20050;-77
2023/11/14 10:07:37;;;;;;;29.63;27.45;;;;;;;22.54;57.80;100897.66;5012281;28;20076;-76
2023/11/14 10:10:09;;;;;;;24.35;22.55;;;;;;;22.64;57.96;100891.34;5010766;28;20054;-77
2023/11/14 10:12:38;;;;;;;25.40;23.50;;;;;;;22.98;55.58;100891.34;5010036;28;20145;-77
2023/11/14 10:15:07;;;;;;;24.02;22.23;;;;;;;21.16;63.51;100889.25;5013499;28;20054;-77
2023/11/14 10:17:45;;;;;;;23.42;21.73;;;;;;;21.59;64.93;100877.00;5013350;28;20045;-76
2023/11/14 10:20:13;;;;;;;25.35;23.33;;;;;;;21.06;66.78;100868.47;5014582;28;20042;-84
2023/11/14 10:22:47;;;;;;;24.50;22.60;;;;;;;22.12;63.28;100869.22;5013893;28;20049;-77
2023/11/14 10:25:29;;;;;;;23.73;21.92;;;;;;;20.95;65.20;100874.94;5012145;28;20049;-77
2023/11/14 10:27:59;;;;;;;26.02;23.60;;;;;;;19.87;78.59;100861.28;5016336;28;20740;-77
2023/11/14 10:30:27;;;;;;;23.27;21.60;;;;;;;20.20;68.78;100843.03;5014050;28;20042;-77
2023/11/14 10:32:57;;;;;;;26.40;23.83;;;;;;;20.46;71.10;100845.78;5014486;28;20058;-76
2023/11/14 10:35:23;;;;;;;23.83;22.23;;;;;;;20.75;69.89;100846.06;5014890;28;20427;-77
2023/11/14 10:37:50;;;;;;;24.58;22.88;;;;;;;21.72;67.67;100829.66;5014148;28;20450;-77
2023/11/14 10:40:18;;;;;;;28.50;25.50;;;;;;;20.72;70.05;100816.91;5015687;28;20052;-77
2023/11/14 10:42:55;;;;;;;23.98;22.38;;;;;;;23.08;60.84;100818.13;5012340;28;20491;-77
2023/11/14 10:45:22;;;;;;;24.67;23.08;;;;;;;21.47;63.46;100817.06;5014269;28;20068;-76
2023/11/14 10:47:50;;;;;;;23.27;21.67;;;;;;;21.76;65.40;100808.31;5012980;28;20593;-76
2023/11/14 10:50:28;;;;;;;25.63;23.83;;;;;;;22.22;59.96;100805.34;5014701;28;20046;-77
2023/11/14 10:52:56;;;;;;;25.45;23.65;;;;;;;20.46;65.13;100797.22;5013873;28;20079;-76
2023/11/14 10:55:27;;;;;;;38.72;26.52;;;;;;;20.48;71.42;100797.75;5011820;28;20108;-76
2023/11/14 10:57:56;;;;;;;30.85;27.92;;;;;;;23.46;55.58;100785.72;5014333;28;20553;-76
2023/11/14 11:00:24;;;;;;;26.08;24.17;;;;;;;22.47;54.01;100788.09;5014837;28;20104;-76
2023/11/14 11:02:54;;;;;;;25.63;23.75;;;;;;;20.48;61.00;100803.13;5012810;28;20054;-76
2023/11/14 11:05:27;;;;;;;26.10;24.20;;;;;;;22.74;54.93;100796.50;5010168;28;20041;-77
2023/11/14 11:07:57;;;;;;;25.52;23.73;;;;;;;21.78;57.32;100801.50;5009960;28;20133;-83
2023/11/14 11:10:24;;;;;;;23.33;21.63;;;;;;;21.18;62.77;100798.78;5015170;28;20052;-85